Time;durP1;ratioP1;P1;durP2;ratioP2;P2;SDS_P1;SDS_P2;PMS_P1;PMS_P2;Temp;Humidity;BMP_temperature;BMP_pressure;BME280_temperature;BME280_humidity;BME280_pressure;Samples;Min_cycle;Max_cycle;Signal;HPM_P1;HPM_P2
2022/06/11 00:01:00;;;;;;;;;4.00;4.00;;;;;;;;5097465;28;11347;-72
2022/06/11 00:03:26;;;;;;;;;5.25;5.00;;;;;;;;5098300;28;10047;-72
2022/06/11 00:05:52;;;;;;;;;5.75;4.00;;;;;;;;5098568;28;10719;-72
2022/06/11 00:08:18;;;;;;;;;5.00;3.00;;;;;;;;5098172;28;9051;-72
2022/06/11 00:10:44;;;;;;;;;3.75;2.75;;;;;;;;5099074;28;9991;-72
2022/06/11 00:13:10;;;;;;;;;5.50;3.75;;;;;;;;5099551;28;13752;-72
2022/06/11 00:15:36;;;;;;;;;5.50;4.50;;;;;;;;5100962;28;10440;-71
2022/06/11 00:18:01;;;;;;;;;4.00;3.00;;;;;;;;5102156;28;9540;-72
2022/06/11 00:20:27;;;;;;;;;3.75;3.75;;;;;;;;5101356;28;11477;-72
2022/06/11 11:54:59;;;;;;;;;1.00;1.00;;;;;;;;5099892;27;1507526;-83
2022/06/11 11:57:28;;;;;;;;;3.00;2.00;;;;;;;;5147548;27;20446;-83
2022/06/11 11:59:59;;;;;;;;;2.50;2.50;;;;;;;;5127083;27;8814;-81
2022/06/11 12:02:46;;;;;;;;;2.00;2.00;;;;;;;;5146120;27;11404;-86
2022/06/11 12:05:19;;;;;;;;;2.00;2.00;;;;;;;;5147597;27;9010;-81
2022/06/11 12:07:45;;;;;;;;;2.00;1.75;;;;;;;;5147328;27;8804;-80
2022/06/11 12:10:19;;;;;;;;;4.25;2.50;;;;;;;;5146668;27;9111;-79
2022/06/11 12:12:48;;;;;;;;;2.75;2.75;;;;;;;;5146274;27;11781;-78
2022/06/11 12:15:14;;;;;;;;;3.25;3.25;;;;;;;;5145312;27;11379;-79
2022/06/11 12:17:54;;;;;;;;;2.67;2.00;;;;;;;;5148177;27;10287;-78
2022/06/11 12:20:29;;;;;;;;;3.75;3.25;;;;;;;;5145030;27;11468;-77
2022/06/11 12:23:01;;;;;;;;;5.25;4.75;;;;;;;;5144073;27;11806;-77
2022/06/11 12:25:44;;;;;;;;;6.00;6.00;;;;;;;;5125332;27;12624;-79
2022/06/11 12:28:12;;;;;;;;;6.75;6.75;;;;;;;;5145467;27;11876;-81
2022/06/11 12:30:38;;;;;;;;;7.50;6.75;;;;;;;;5144348;27;8821;-83
2022/06/11 12:33:10;;;;;;;;;2.00;2.00;;;;;;;;5145041;27;8949;-85
2022/06/11 12:35:46;;;;;;;;;2.25;2.25;;;;;;;;5148375;27;12060;-80
2022/06/11 12:38:19;;;;;;;;;2.00;2.00;;;;;;;;5146539;27;9532;-84
2022/06/11 12:40:51;;;;;;;;;6.50;6.00;;;;;;;;5156172;27;8774;-80
2022/06/11 12:43:29;;;;;;;;;4.50;3.00;;;;;;;;5137818;27;11174;-77
2022/06/11 12:46:06;;;;;;;;;3.25;2.50;;;;;;;;5156215;27;8893;-79
2022/06/11 12:48:40;;;;;;;;;2.00;2.00;;;;;;;;5156916;27;12134;-82
2022/06/11 12:51:18;;;;;;;;;1.25;1.25;;;;;;;;5156761;27;11631;-80
2022/06/11 12:53:50;;;;;;;;;2.25;1.00;;;;;;;;5149820;27;11349;-80
2022/06/11 12:56:16;;;;;;;;;4.00;2.00;;;;;;;;5143972;27;11461;-82
2022/06/11 12:58:44;;;;;;;;;2.00;2.00;;;;;;;;5145805;27;10452;-80
2022/06/11 13:01:22;;;;;;;;;5.00;4.00;;;;;;;;5145706;27;8792;-81
2022/06/11 13:03:56;;;;;;;;;2.75;1.75;;;;;;;;5145607;27;9864;-82
2022/06/11 13:06:40;;;;;;;;;1.00;1.00;;;;;;;;5131181;27;11379;-81
2022/06/11 13:09:12;;;;;;;;;2.00;2.00;;;;;;;;5131815;27;11432;-82
2022/06/11 13:11:47;;;;;;;;;2.00;2.00;;;;;;;;5131562;27;8821;-82
2022/06/11 13:14:38;;;;;;;;;2.25;2.00;;;;;;;;5132751;27;8800;-82
2022/06/11 13:17:16;;;;;;;;;2.25;2.00;;;;;;;;5096915;22;8802;-94
2022/06/11 13:19:49;;;;;;;;;1.00;1.00;;;;;;;;5096132;28;8939;-94
2022/06/11 13:22:33;;;;;;;;;5.00;5.00;;;;;;;;5076693;28;10351;-85
2022/06/11 13:25:04;;;;;;;;;1.75;1.75;;;;;;;;5071835;28;8812;-80
2022/06/11 13:27:52;;;;;;;;;1.25;1.25;;;;;;;;5070389;28;11432;-78
2022/06/11 13:30:18;;;;;;;;;1.00;1.00;;;;;;;;5051352;28;8940;-75
2022/06/11 13:32:55;;;;;;;;;3.33;3.33;;;;;;;;5074765;28;9918;-78
2022/06/11 13:35:24;;;;;;;;;3.00;1.25;;;;;;;;5072718;28;11360;-77
2022/06/11 13:38:15;;;;;;;;;1.00;1.00;;;;;;;;5070948;28;10824;-77
2022/06/11 13:40:43;;;;;;;;;1.50;1.00;;;;;;;;5066136;28;11505;-78
2022/06/11 13:43:18;;;;;;;;;7.75;7.75;;;;;;;;5067332;28;8844;-78
2022/06/11 13:46:02;;;;;;;;;1.75;1.75;;;;;;;;5070387;28;11382;-79
2022/06/11 13:48:44;;;;;;;;;2.50;1.00;;;;;;;;5070895;28;8850;-80
2022/06/11 13:51:15;;;;;;;;;1.00;1.00;;;;;;;;5073271;28;11443;-80
2022/06/11 13:56:35;;;;;;;;;1.00;1.00;;;;;;;;5071270;28;8780;-78
2022/06/11 13:59:19;;;;;;;;;4.25;2.00;;;;;;;;5074531;28;8772;-81
2022/06/11 14:02:03;;;;;;;;;3.25;2.50;;;;;;;;5070709;28;10840;-79
2022/06/11 14:04:32;;;;;;;;;2.50;2.50;;;;;;;;5076489;28;12647;-81
2022/06/11 14:06:59;;;;;;;;;1.00;1.00;;;;;;;;5070179;28;8909;-76
2022/06/11 14:12:29;;;;;;;;;1.00;1.00;;;;;;;;5068542;28;8897;-79
2022/06/11 14:15:33;;;;;;;;;1.00;1.00;;;;;;;;5069804;28;8849;-79
2022/06/11 14:18:18;;;;;;;;;2.00;1.25;;;;;;;;5024492;28;8808;-78
2022/06/11 14:20:44;;;;;;;;;2.00;2.00;;;;;;;;5025773;28;11689;-78
2022/06/11 14:23:09;;;;;;;;;3.00;3.00;;;;;;;;5022385;28;9219;-78
2022/06/11 14:25:37;;;;;;;;;1.00;1.00;;;;;;;;5011357;28;10934;-77
2022/06/11 14:28:14;;;;;;;;;1.00;0.00;;;;;;;;5033409;28;8801;-77
2022/06/11 14:31:00;;;;;;;;;2.75;1.00;;;;;;;;5009077;28;8807;-76
2022/06/11 14:33:27;;;;;;;;;1.75;1.75;;;;;;;;5014596;28;11077;-77
2022/06/11 14:35:54;;;;;;;;;1.00;1.00;;;;;;;;5008321;28;13783;-76
2022/06/11 14:38:32;;;;;;;;;1.00;1.00;;;;;;;;5027342;28;8808;-77
2022/06/11 14:41:09;;;;;;;;;1.00;1.00;;;;;;;;5026537;28;8830;-76
2022/06/11 14:43:53;;;;;;;;;2.50;2.00;;;;;;;;5026020;28;9719;-83
2022/06/11 14:46:33;;;;;;;;;2.00;2.00;;;;;;;;5022241;28;10677;-84
2022/06/11 14:48:58;;;;;;;;;1.00;0.75;;;;;;;;5045970;28;9659;-84
2022/06/11 14:51:26;;;;;;;;;3.00;1.00;;;;;;;;5069843;28;12886;-86
2022/06/11 14:53:51;;;;;;;;;1.00;1.00;;;;;;;;5065889;28;11710;-86
2022/06/11 14:56:26;;;;;;;;;4.67;4.33;;;;;;;;5067616;28;8812;-86
2022/06/11 14:58:57;;;;;;;;;1.75;1.75;;;;;;;;5068177;28;11617;-85
2022/06/11 15:01:28;;;;;;;;;2.00;2.00;;;;;;;;5076615;28;10681;-86
2022/06/11 15:04:16;;;;;;;;;1.25;1.25;;;;;;;;5075631;28;11555;-85
2022/06/11 15:06:48;;;;;;;;;2.00;2.00;;;;;;;;5045343;28;11566;-83
2022/06/11 15:09:35;;;;;;;;;2.75;2.00;;;;;;;;5046136;28;12955;-87
2022/06/11 15:12:10;;;;;;;;;2.00;2.00;;;;;;;;5046665;28;8777;-90
2022/06/11 15:14:43;;;;;;;;;3.25;2.50;;;;;;;;5044010;28;8897;-89
2022/06/11 15:17:12;;;;;;;;;2.00;2.00;;;;;;;;5043217;28;12588;-91
2022/06/11 15:19:37;;;;;;;;;3.00;3.00;;;;;;;;5045721;28;11628;-83
2022/06/11 15:22:21;;;;;;;;;4.00;2.00;;;;;;;;5042951;28;8820;-82
2022/06/11 15:24:55;;;;;;;;;1.75;1.75;;;;;;;;5046903;28;8830;-82
2022/06/11 15:27:22;;;;;;;;;5.75;5.75;;;;;;;;5043620;28;12181;-82
2022/06/11 15:29:47;;;;;;;;;3.00;2.00;;;;;;;;5044104;28;8792;-82
2022/06/11 15:32:18;;;;;;;;;4.00;3.00;;;;;;;;5046374;28;11322;-82
2022/06/11 15:34:54;;;;;;;;;2.50;2.50;;;;;;;;5029026;28;12096;-83
2022/06/11 15:37:25;;;;;;;;;3.25;3.00;;;;;;;;5053272;28;11413;-83
2022/06/11 15:39:59;;;;;;;;;1.00;1.00;;;;;;;;5066693;28;11409;-82
2022/06/11 15:42:34;;;;;;;;;2.75;2.75;;;;;;;;5061133;28;10536;-82
2022/06/11 15:45:00;;;;;;;;;3.25;2.00;;;;;;;;5059050;28;11488;-83
2022/06/11 15:47:27;;;;;;;;;3.33;3.33;;;;;;;;5061875;28;11311;-82
2022/06/11 15:50:04;;;;;;;;;1.75;1.75;;;;;;;;5062050;28;9015;-84
2022/06/11 15:52:32;;;;;;;;;2.00;2.00;;;;;;;;5062050;28;10491;-83
2022/06/11 15:55:12;;;;;;;;;2.00;2.00;;;;;;;;5067326;28;11388;-83
2022/06/11 15:57:44;;;;;;;;;4.00;3.00;;;;;;;;5065062;28;8842;-82
2022/06/11 16:00:21;;;;;;;;;2.00;2.00;;;;;;;;5066237;28;8797;-81
2022/06/11 16:02:47;;;;;;;;;4.50;3.00;;;;;;;;5064193;28;8947;-81
2022/06/11 16:05:17;;;;;;;;;4.00;4.00;;;;;;;;5065835;28;10828;-82
2022/06/11 16:07:44;;;;;;;;;2.75;2.50;;;;;;;;5066585;28;9925;-82
2022/06/11 16:10:14;;;;;;;;;4.00;4.00;;;;;;;;5065740;28;11373;-82
2022/06/11 16:12:40;;;;;;;;;3.00;2.00;;;;;;;;5067496;28;11480;-82
2022/06/11 16:15:06;;;;;;;;;2.33;2.00;;;;;;;;5067741;28;9522;-82
2022/06/11 16:17:39;;;;;;;;;2.00;2.00;;;;;;;;5065914;28;8882;-82
2022/06/11 16:20:28;;;;;;;;;2.50;2.00;;;;;;;;5066260;28;8795;-82
2022/06/11 16:22:58;;;;;;;;;2.00;2.00;;;;;;;;5059671;28;9243;-83
2022/06/11 16:25:37;;;;;;;;;2.75;2.75;;;;;;;;5064470;28;8830;-81
2022/06/11 16:28:03;;;;;;;;;2.75;2.75;;;;;;;;5067036;28;8994;-82
2022/06/11 16:30:33;;;;;;;;;2.25;2.25;;;;;;;;5063622;28;8790;-82
2022/06/11 16:33:00;;;;;;;;;2.25;2.25;;;;;;;;5056561;28;8841;-79
2022/06/11 16:35:27;;;;;;;;;2.00;2.00;;;;;;;;5057666;28;8856;-79
2022/06/11 16:37:52;;;;;;;;;2.50;2.50;;;;;;;;5057546;28;8770;-82
2022/06/11 16:40:27;;;;;;;;;0.67;0.67;;;;;;;;5058012;28;8853;-82
2022/06/11 16:43:03;;;;;;;;;2.50;2.50;;;;;;;;5061426;28;11907;-82
2022/06/11 16:45:31;;;;;;;;;2.00;2.00;;;;;;;;5061125;28;11847;-80
2022/06/11 16:48:01;;;;;;;;;1.50;1.50;;;;;;;;5061670;28;9062;-78
2022/06/11 16:56:16;;;;;;;;;1.25;1.00;;;;;;;;5062090;28;11368;-80
2022/06/11 16:58:42;;;;;;;;;1.50;1.50;;;;;;;;5061085;28;11895;-82
2022/06/11 17:01:07;;;;;;;;;4.33;2.67;;;;;;;;5060004;28;9113;-78
2022/06/11 17:03:40;;;;;;;;;3.00;2.00;;;;;;;;5060840;28;11325;-77
2022/06/11 17:06:05;;;;;;;;;3.25;3.25;;;;;;;;5074422;28;11532;-78
2022/06/11 17:08:39;;;;;;;;;2.00;2.00;;;;;;;;5080812;28;10433;-76
2022/06/11 17:11:05;;;;;;;;;1.50;1.50;;;;;;;;5081193;28;11658;-76
2022/06/11 17:13:33;;;;;;;;;2.00;2.00;;;;;;;;5080807;28;12485;-77
2022/06/11 17:15:58;;;;;;;;;2.00;2.00;;;;;;;;5080432;28;11706;-76
2022/06/11 17:18:26;;;;;;;;;4.00;2.33;;;;;;;;5081599;28;8882;-77
2022/06/11 17:20:53;;;;;;;;;2.00;1.75;;;;;;;;5080865;28;11447;-77
2022/06/11 17:23:27;;;;;;;;;2.00;2.00;;;;;;;;5080861;28;10354;-76
2022/06/11 17:25:55;;;;;;;;;2.50;2.50;;;;;;;;5077623;28;9806;-78
2022/06/11 17:28:25;;;;;;;;;2.25;2.25;;;;;;;;5080861;28;8889;-78
2022/06/11 17:30:50;;;;;;;;;2.00;2.00;;;;;;;;5069243;28;8803;-78
2022/06/11 17:33:15;;;;;;;;;2.67;2.67;;;;;;;;5069144;28;8862;-77
2022/06/11 17:35:41;;;;;;;;;2.00;2.00;;;;;;;;5071741;28;8792;-79
2022/06/11 17:38:25;;;;;;;;;3.00;3.00;;;;;;;;5066600;28;10323;-76
2022/06/11 17:40:50;;;;;;;;;3.25;3.25;;;;;;;;5070125;28;9120;-77
2022/06/11 17:43:15;;;;;;;;;2.00;2.00;;;;;;;;5068081;28;9535;-79
2022/06/11 17:45:40;;;;;;;;;3.33;3.00;;;;;;;;5070332;28;11303;-79
2022/06/11 17:48:06;;;;;;;;;3.33;3.33;;;;;;;;5064892;28;10475;-76
2022/06/11 17:50:31;;;;;;;;;3.00;3.00;;;;;;;;5065309;28;8817;-78
2022/06/11 17:52:59;;;;;;;;;4.00;2.67;;;;;;;;5058781;28;8838;-80
2022/06/11 17:55:25;;;;;;;;;3.00;3.00;;;;;;;;5062491;28;13219;-77
2022/06/11 17:57:52;;;;;;;;;4.25;4.25;;;;;;;;5060204;28;11427;-81
2022/06/11 18:00:24;;;;;;;;;3.25;3.25;;;;;;;;5067565;28;11438;-80
2022/06/11 18:02:53;;;;;;;;;4.00;4.00;;;;;;;;5068308;28;8958;-82
2022/06/11 18:05:22;;;;;;;;;3.50;3.00;;;;;;;;5069779;28;11391;-82
2022/06/11 18:07:49;;;;;;;;;3.00;3.00;;;;;;;;5065226;28;10411;-82
2022/06/11 18:10:16;;;;;;;;;4.00;4.00;;;;;;;;5062177;28;8800;-82
2022/06/11 18:12:42;;;;;;;;;4.00;2.75;;;;;;;;5061637;28;10350;-80
2022/06/11 18:15:08;;;;;;;;;5.00;4.00;;;;;;;;5061040;28;9036;-82
2022/06/11 18:17:33;;;;;;;;;3.00;3.00;;;;;;;;5060910;28;11449;-80
2022/06/11 18:19:59;;;;;;;;;4.67;3.33;;;;;;;;5059815;28;10656;-80
2022/06/11 18:25:18;;;;;;;;;3.00;3.00;;;;;;;;5061371;28;8806;-77
2022/06/11 18:27:48;;;;;;;;;3.75;3.00;;;;;;;;5065832;28;9023;-82
2022/06/11 18:30:15;;;;;;;;;2.75;2.75;;;;;;;;5069255;28;8826;-79
2022/06/11 18:32:41;;;;;;;;;3.50;2.75;;;;;;;;5067569;28;12669;-79
2022/06/11 18:35:07;;;;;;;;;3.33;3.33;;;;;;;;5068210;28;9275;-79
2022/06/11 18:37:32;;;;;;;;;3.00;3.00;;;;;;;;5068058;28;9712;-82
2022/06/11 18:39:58;;;;;;;;;5.33;4.00;;;;;;;;5067072;28;9630;-80
2022/06/11 18:42:23;;;;;;;;;5.00;4.00;;;;;;;;5068801;28;10269;-80
2022/06/11 18:44:49;;;;;;;;;3.67;3.67;;;;;;;;5068571;28;8838;-80
2022/06/11 18:47:14;;;;;;;;;4.00;4.00;;;;;;;;5066757;28;11741;-80
2022/06/11 18:49:40;;;;;;;;;2.00;2.00;;;;;;;;5069152;28;11311;-80
2022/06/11 18:52:06;;;;;;;;;5.33;3.67;;;;;;;;5067872;28;8918;-79
2022/06/11 18:54:31;;;;;;;;;4.00;4.00;;;;;;;;5072885;28;12594;-80
2022/06/11 18:56:58;;;;;;;;;3.00;3.00;;;;;;;;5079151;28;11650;-80
2022/06/11 18:59:24;;;;;;;;;4.00;4.00;;;;;;;;5078255;28;11242;-80
2022/06/11 19:01:49;;;;;;;;;5.00;5.00;;;;;;;;5079546;28;8796;-80
2022/06/11 19:04:14;;;;;;;;;5.00;5.00;;;;;;;;5077721;28;8927;-86
2022/06/11 19:06:40;;;;;;;;;1.67;1.67;;;;;;;;5080035;28;8804;-87
2022/06/11 19:09:06;;;;;;;;;2.50;2.50;;;;;;;;5078268;28;13050;-81
2022/06/11 19:11:32;;;;;;;;;4.33;4.33;;;;;;;;5077910;28;11309;-82
2022/06/11 19:13:57;;;;;;;;;5.00;5.00;;;;;;;;5079040;28;11818;-79
2022/06/11 19:16:22;;;;;;;;;3.00;3.00;;;;;;;;5078205;28;11971;-84
2022/06/11 19:18:51;;;;;;;;;2.25;2.25;;;;;;;;5079537;28;8804;-93
2022/06/11 19:21:16;;;;;;;;;2.00;2.00;;;;;;;;5079577;28;11681;-90
2022/06/11 19:23:41;;;;;;;;;2.00;2.00;;;;;;;;5079249;28;8838;-91
2022/06/11 19:26:08;;;;;;;;;2.33;2.33;;;;;;;;5079483;28;8820;-90
2022/06/11 19:28:34;;;;;;;;;3.75;1.50;;;;;;;;5078522;28;8796;-91
2022/06/11 19:30:59;;;;;;;;;2.00;2.00;;;;;;;;5079371;28;11565;-89
2022/06/11 19:33:26;;;;;;;;;1.67;1.67;;;;;;;;5079002;28;11515;-90
2022/06/11 19:35:56;;;;;;;;;1.75;1.75;;;;;;;;5077372;28;13241;-90
2022/06/11 19:38:24;;;;;;;;;2.50;2.50;;;;;;;;5079417;28;8786;-89
2022/06/11 19:40:51;;;;;;;;;2.00;2.00;;;;;;;;5080280;28;11362;-92
2022/06/11 19:43:17;;;;;;;;;1.50;1.50;;;;;;;;5079576;28;9013;-90
2022/06/11 19:45:45;;;;;;;;;4.50;3.00;;;;;;;;5078857;28;11368;-86
2022/06/11 19:48:12;;;;;;;;;2.00;2.00;;;;;;;;5079003;28;11647;-85
2022/06/11 19:50:38;;;;;;;;;2.75;2.75;;;;;;;;5078629;28;12443;-85
2022/06/11 19:53:03;;;;;;;;;4.67;3.00;;;;;;;;5078526;28;8817;-83
2022/06/11 19:55:28;;;;;;;;;5.00;3.00;;;;;;;;5077568;28;11316;-85
2022/06/11 19:57:54;;;;;;;;;3.67;3.00;;;;;;;;5077718;28;8906;-81
2022/06/11 20:00:21;;;;;;;;;3.00;3.00;;;;;;;;5078832;28;9338;-83
2022/06/11 20:02:46;;;;;;;;;4.00;4.00;;;;;;;;5078908;28;8788;-84
2022/06/11 20:05:12;;;;;;;;;3.67;2.00;;;;;;;;5078655;28;8962;-84
2022/06/11 20:07:37;;;;;;;;;3.00;2.50;;;;;;;;5076823;28;10351;-84
2022/06/11 20:10:03;;;;;;;;;2.00;2.00;;;;;;;;5078386;28;8876;-84
2022/06/11 20:12:28;;;;;;;;;2.00;2.00;;;;;;;;5077710;28;11350;-84
2022/06/11 20:14:54;;;;;;;;;2.00;2.00;;;;;;;;5078726;28;9537;-85
2022/06/11 20:17:19;;;;;;;;;2.00;2.00;;;;;;;;5082659;28;8816;-85
2022/06/11 20:19:44;;;;;;;;;1.00;1.00;;;;;;;;5082443;28;8803;-84
2022/06/11 20:22:10;;;;;;;;;2.00;2.00;;;;;;;;5082315;28;8800;-84
2022/06/11 20:24:37;;;;;;;;;2.00;2.00;;;;;;;;5082285;28;8972;-84
2022/06/11 20:27:03;;;;;;;;;1.00;1.00;;;;;;;;5081807;28;8808;-85
2022/06/11 20:29:29;;;;;;;;;2.00;2.00;;;;;;;;5079507;28;10223;-85
2022/06/11 20:31:54;;;;;;;;;1.50;1.50;;;;;;;;5082385;28;8788;-84
2022/06/11 20:34:20;;;;;;;;;4.00;2.67;;;;;;;;5081956;28;11662;-86
2022/06/11 20:36:46;;;;;;;;;1.33;1.33;;;;;;;;5081700;28;11656;-85
2022/06/11 20:39:12;;;;;;;;;3.00;1.00;;;;;;;;5082363;28;11283;-84
2022/06/11 20:41:38;;;;;;;;;3.00;2.00;;;;;;;;5080094;28;11439;-84
2022/06/11 20:44:03;;;;;;;;;0.67;0.67;;;;;;;;5081588;28;8796;-84
2022/06/11 20:46:29;;;;;;;;;3.00;3.00;;;;;;;;5080946;28;11523;-84
2022/06/11 20:48:54;;;;;;;;;2.00;2.00;;;;;;;;5086207;28;11502;-85
2022/06/11 20:51:21;;;;;;;;;3.67;3.00;;;;;;;;5083913;28;8796;-77
2022/06/11 20:53:47;;;;;;;;;3.00;3.00;;;;;;;;5081069;28;11115;-85
2022/06/11 20:56:13;;;;;;;;;4.00;2.00;;;;;;;;5079827;28;8971;-86
2022/06/11 20:58:39;;;;;;;;;1.67;1.67;;;;;;;;5079201;28;10711;-86
2022/06/11 21:01:05;;;;;;;;;2.33;2.00;;;;;;;;5080616;28;11286;-86
2022/06/11 21:03:30;;;;;;;;;1.67;1.67;;;;;;;;5081581;28;11863;-86
2022/06/11 21:05:56;;;;;;;;;2.00;2.00;;;;;;;;5081584;28;11341;-86
2022/06/11 21:11:05;;;;;;;;;1.75;1.75;;;;;;;;5081601;28;8776;-86
2022/06/11 21:13:31;;;;;;;;;1.33;1.33;;;;;;;;5079793;28;13342;-86
2022/06/11 21:15:56;;;;;;;;;1.67;1.67;;;;;;;;5080655;28;8816;-86
2022/06/11 21:18:22;;;;;;;;;1.33;1.33;;;;;;;;5079549;28;10569;-87
2022/06/11 21:20:47;;;;;;;;;2.67;2.00;;;;;;;;5079887;28;10319;-87
2022/06/11 21:23:13;;;;;;;;;1.00;1.00;;;;;;;;5080843;28;11608;-86
2022/06/11 21:25:43;;;;;;;;;3.00;3.00;;;;;;;;5080533;28;10241;-87
2022/06/11 21:28:12;;;;;;;;;4.33;4.33;;;;;;;;5081006;28;8967;-87
2022/06/11 21:30:38;;;;;;;;;4.00;4.00;;;;;;;;5080178;28;12114;-88
2022/06/11 21:33:04;;;;;;;;;3.67;2.00;;;;;;;;5080294;28;9150;-87
2022/06/11 21:35:31;;;;;;;;;4.00;4.00;;;;;;;;5080630;28;11506;-87
2022/06/11 21:37:57;;;;;;;;;6.00;5.00;;;;;;;;5080398;28;10583;-86
2022/06/11 21:40:22;;;;;;;;;6.33;5.67;;;;;;;;5080496;28;9175;-86
2022/06/11 21:42:49;;;;;;;;;5.67;5.00;;;;;;;;5079811;28;8918;-86
2022/06/11 21:45:16;;;;;;;;;5.25;5.25;;;;;;;;5080379;28;11516;-87
2022/06/11 21:47:43;;;;;;;;;6.33;6.33;;;;;;;;5080556;28;9547;-87
2022/06/11 21:50:09;;;;;;;;;10.25;10.25;;;;;;;;5080530;28;9289;-88
2022/06/11 21:52:34;;;;;;;;;10.75;9.00;;;;;;;;5079848;28;22651;-78
2022/06/11 21:55:00;;;;;;;;;9.33;7.67;;;;;;;;5080366;28;22026;-84
2022/06/11 21:57:28;;;;;;;;;11.50;9.00;;;;;;;;5078442;28;21960;-88
2022/06/11 21:59:53;;;;;;;;;10.25;9.00;;;;;;;;5080275;28;21545;-87
2022/06/11 22:02:20;;;;;;;;;38.25;32.75;;;;;;;;5080525;28;9732;-87
2022/06/11 22:04:47;;;;;;;;;17.50;15.75;;;;;;;;5080187;28;24196;-88
2022/06/11 22:07:17;;;;;;;;;5.00;5.00;;;;;;;;5080640;28;12458;-87
2022/06/11 22:09:43;;;;;;;;;9.25;9.00;;;;;;;;5078719;28;24259;-87
2022/06/11 22:12:09;;;;;;;;;9.75;9.75;;;;;;;;5079251;28;13961;-88
2022/06/11 22:14:35;;;;;;;;;8.50;7.75;;;;;;;;5079245;28;10572;-88
2022/06/11 22:17:01;;;;;;;;;9.50;8.75;;;;;;;;5078108;28;10579;-87
2022/06/11 22:19:27;;;;;;;;;9.25;8.50;;;;;;;;5081110;28;9017;-88
2022/06/11 22:22:01;;;;;;;;;8.00;8.00;;;;;;;;5080355;28;9563;-88
2022/06/11 22:24:29;;;;;;;;;11.00;10.25;;;;;;;;5080625;28;11386;-88
2022/06/11 22:26:55;;;;;;;;;10.75;10.75;;;;;;;;5077814;28;23114;-88
2022/06/11 22:29:21;;;;;;;;;11.75;11.50;;;;;;;;5078083;28;13688;-89
2022/06/11 22:31:47;;;;;;;;;13.75;11.50;;;;;;;;5078977;28;13716;-89
2022/06/11 22:34:12;;;;;;;;;12.00;12.00;;;;;;;;5078909;28;9838;-90
2022/06/11 22:36:37;;;;;;;;;11.00;11.00;;;;;;;;5081065;28;11562;-89
